Главная страница
METAR-TAF:

METAR-TAF

Аэропорты :

Front Royal, Виргиния, США

широта: 38-55-03N, долгота: 078-15-12W, высота над уровнем моря: 216 м

Текущие метеонаблюдения

Эта сводка был подготовлена 19 минут назад, в 14:15 UTC
Ветер 6 Узел от южный
Температура 19°C
Влажность 78%
Давление 998 hPa
Видимость: 16.1 км
Отдельные облака на высоте 9000 фута
Рассеянная облачность на высоте 12000 фута

METAR: KFRR 261415Z AUTO 19006KT 10SM SCT090 BKN120 19/15 A2948 RMK AO1

Время: 10:34 (14:34 UTC)


TAF: отсутствует

Метеонаблюдения и прогнозы для более 4000 аэропортов (сводки METAR и TAF).

Имеющиеся станции представлены на карте желтыми и красными точками.

Чтобы увидеть название станции, наведите на нее мышь.

Затем щелкните, чтобы увидеть метеонаблюдения и метеопрогнозы.

Управление картой: чтобы увеличить масштаб, щелкните зеленые кнопки с черным крестиком; чтобы уменьшить масштаб, щелкните зеленую кнопку с тире; для просмотра соседних карт щелкайте зеленые стрелки.


METAR-TAF: